sensor_id;sensor_type;location;lat;lon;timestamp;pressure;altitude;pressure_sealevel;temperature;humidity
54936;BME280;40838;50.676;7.838;2023-04-01T00:02:26;96395.16;;;6.31;100.00
54936;BME280;40838;50.676;7.838;2023-04-01T00:04:53;96411.91;;;6.13;100.00
54936;BME280;40838;50.676;7.838;2023-04-01T00:07:20;96402.81;;;6.19;100.00
54936;BME280;40838;50.676;7.838;2023-04-01T00:09:47;96389.75;;;7.54;100.00
54936;BME280;40838;50.676;7.838;2023-04-01T00:12:16;96392.91;;;7.11;100.00
54936;BME280;40838;50.676;7.838;2023-04-01T00:14:43;96393.09;;;6.28;100.00
54936;BME280;40838;50.676;7.838;2023-04-01T00:17:10;96396.25;;;6.66;100.00
54936;BME280;40838;50.676;7.838;2023-04-01T00:19:37;96398.28;;;6.83;100.00
54936;BME280;40838;50.676;7.838;2023-04-01T00:22:04;96384.28;;;7.05;100.00
54936;BME280;40838;50.676;7.838;2023-04-01T00:24:31;96397.41;;;6.88;100.00
54936;BME280;40838;50.676;7.838;2023-04-01T00:26:58;96389.34;;;7.15;100.00
54936;BME280;40838;50.676;7.838;2023-04-01T00:29:26;96392.06;;;6.52;100.00
54936;BME280;40838;50.676;7.838;2023-04-01T00:31:56;96387.53;;;7.02;100.00
54936;BME280;40838;50.676;7.838;2023-04-01T00:34:23;96391.47;;;7.05;100.00
54936;BME280;40838;50.676;7.838;2023-04-01T00:36:51;96396.41;;;6.34;100.00
54936;BME280;40838;50.676;7.838;2023-04-01T00:39:19;96395.34;;;6.07;100.00
54936;BME280;40838;50.676;7.838;2023-04-01T00:41:46;96389.00;;;6.72;100.00
54936;BME280;40838;50.676;7.838;2023-04-01T00:44:19;96388.81;;;7.05;100.00
54936;BME280;40838;50.676;7.838;2023-04-01T00:46:48;96389.97;;;5.85;100.00
54936;BME280;40838;50.676;7.838;2023-04-01T00:49:17;96389.44;;;6.88;100.00
54936;BME280;40838;50.676;7.838;2023-04-01T00:51:47;96389.28;;;6.84;100.00
54936;BME280;40838;50.676;7.838;2023-04-01T00:54:16;96387.06;;;6.00;100.00
54936;BME280;40838;50.676;7.838;2023-04-01T00:56:46;96390.53;;;6.51;100.00
54936;BME280;40838;50.676;7.838;2023-04-01T00:59:18;96388.53;;;6.70;100.00
54936;BME280;40838;50.676;7.838;2023-04-01T01:01:49;96389.66;;;6.14;100.00
54936;BME280;40838;50.676;7.838;2023-04-01T01:04:24;96388.50;;;5.92;100.00
54936;BME280;40838;50.676;7.838;2023-04-01T01:06:52;96381.34;;;10.09;100.00
54936;BME280;40838;50.676;7.838;2023-04-01T01:09:30;96381.06;;;9.29;100.00
54936;BME280;40838;50.676;7.838;2023-04-01T01:12:06;96391.47;;;7.27;100.00
54936;BME280;40838;50.676;7.838;2023-04-01T01:14:42;96383.63;;;8.07;100.00
54936;BME280;40838;50.676;7.838;2023-04-01T01:17:25;96375.38;;;7.46;100.00
54936;BME280;40838;50.676;7.838;2023-04-01T01:20:15;96382.75;;;6.68;100.00
54936;BME280;40838;50.676;7.838;2023-04-01T01:22:54;96381.63;;;7.50;100.00
54936;BME280;40838;50.676;7.838;2023-04-01T01:25:37;96368.84;;;8.32;100.00
54936;BME280;40838;50.676;7.838;2023-04-01T01:28:22;96375.75;;;9.20;100.00
54936;BME280;40838;50.676;7.838;2023-04-01T01:30:57;96380.78;;;7.64;100.00
54936;BME280;40838;50.676;7.838;2023-04-01T01:33:45;96376.22;;;7.87;100.00
54936;BME280;40838;50.676;7.838;2023-04-01T01:36:18;96378.47;;;9.67;100.00
54936;BME280;40838;50.676;7.838;2023-04-01T01:38:48;96375.75;;;7.93;100.00
54936;BME280;40838;50.676;7.838;2023-04-01T01:41:17;96381.31;;;8.32;100.00
54936;BME280;40838;50.676;7.838;2023-04-01T01:43:48;96372.75;;;8.43;100.00
54936;BME280;40838;50.676;7.838;2023-04-01T01:46:19;96359.81;;;7.84;100.00
54936;BME280;40838;50.676;7.838;2023-04-01T01:48:48;96365.97;;;8.02;100.00
54936;BME280;40838;50.676;7.838;2023-04-01T01:51:18;96364.06;;;8.51;100.00
54936;BME280;40838;50.676;7.838;2023-04-01T01:53:47;96367.78;;;7.53;100.00
54936;BME280;40838;50.676;7.838;2023-04-01T01:56:17;96360.19;;;8.09;100.00
54936;BME280;40838;50.676;7.838;2023-04-01T01:58:47;96363.47;;;8.06;100.00
54936;BME280;40838;50.676;7.838;2023-04-01T02:01:21;96358.06;;;8.28;100.00
54936;BME280;40838;50.676;7.838;2023-04-01T02:03:51;96359.56;;;8.03;100.00
54936;BME280;40838;50.676;7.838;2023-04-01T02:06:22;96355.78;;;8.70;100.00
54936;BME280;40838;50.676;7.838;2023-04-01T02:08:52;96362.22;;;8.03;100.00
54936;BME280;40838;50.676;7.838;2023-04-01T02:11:26;96359.88;;;8.02;100.00
54936;BME280;40838;50.676;7.838;2023-04-01T02:13:55;96355.41;;;8.28;100.00
54936;BME280;40838;50.676;7.838;2023-04-01T02:16:27;96353.34;;;8.08;100.00
54936;BME280;40838;50.676;7.838;2023-04-01T02:18:58;96354.25;;;8.03;100.00
54936;BME280;40838;50.676;7.838;2023-04-01T02:21:30;96349.56;;;8.58;100.00
54936;BME280;40838;50.676;7.838;2023-04-01T02:24:00;96358.31;;;7.61;100.00
54936;BME280;40838;50.676;7.838;2023-04-01T02:26:29;96362.00;;;7.82;100.00
54936;BME280;40838;50.676;7.838;2023-04-01T02:28:58;96348.84;;;8.17;100.00
54936;BME280;40838;50.676;7.838;2023-04-01T02:31:26;96355.94;;;7.91;100.00
54936;BME280;40838;50.676;7.838;2023-04-01T02:33:54;96352.50;;;8.65;100.00
54936;BME280;40838;50.676;7.838;2023-04-01T02:36:21;96360.19;;;8.09;100.00
54936;BME280;40838;50.676;7.838;2023-04-01T02:38:50;96358.53;;;7.20;100.00
54936;BME280;40838;50.676;7.838;2023-04-01T02:41:18;96367.97;;;6.89;100.00
54936;BME280;40838;50.676;7.838;2023-04-01T02:43:44;96367.38;;;6.92;100.00
54936;BME280;40838;50.676;7.838;2023-04-01T02:46:12;96354.63;;;7.17;100.00
54936;BME280;40838;50.676;7.838;2023-04-01T02:48:39;96351.06;;;7.75;100.00
54936;BME280;40838;50.676;7.838;2023-04-01T02:51:05;96355.13;;;6.60;100.00
54936;BME280;40838;50.676;7.838;2023-04-01T02:53:32;96362.84;;;6.70;100.00
54936;BME280;40838;50.676;7.838;2023-04-01T02:56:00;96369.31;;;6.78;100.00
54936;BME280;40838;50.676;7.838;2023-04-01T02:58:27;96355.50;;;7.12;100.00
54936;BME280;40838;50.676;7.838;2023-04-01T03:00:54;96351.81;;;7.13;100.00
54936;BME280;40838;50.676;7.838;2023-04-01T03:03:21;96352.75;;;7.40;100.00
54936;BME280;40838;50.676;7.838;2023-04-01T03:05:48;96365.63;;;6.88;100.00
54936;BME280;40838;50.676;7.838;2023-04-01T03:08:15;96344.94;;;8.23;100.00
54936;BME280;40838;50.676;7.838;2023-04-01T03:10:42;96360.69;;;7.71;100.00
54936;BME280;40838;50.676;7.838;2023-04-01T03:13:10;96352.59;;;7.76;100.00
54936;BME280;40838;50.676;7.838;2023-04-01T03:15:37;96355.06;;;7.64;100.00
54936;BME280;40838;50.676;7.838;2023-04-01T03:18:04;96348.97;;;7.64;100.00
54936;BME280;40838;50.676;7.838;2023-04-01T03:20:31;96361.56;;;6.68;100.00
54936;BME280;40838;50.676;7.838;2023-04-01T03:22:58;96357.06;;;6.18;100.00
54936;BME280;40838;50.676;7.838;2023-04-01T03:25:26;96366.59;;;6.69;100.00
54936;BME280;40838;50.676;7.838;2023-04-01T03:27:54;96360.41;;;6.97;100.00
54936;BME280;40838;50.676;7.838;2023-04-01T03:30:22;96352.69;;;7.09;100.00
54936;BME280;40838;50.676;7.838;2023-04-01T03:32:49;96351.66;;;7.19;100.00
54936;BME280;40838;50.676;7.838;2023-04-01T03:35:17;96365.00;;;6.05;100.00
54936;BME280;40838;50.676;7.838;2023-04-01T03:37:45;96348.66;;;8.05;100.00
54936;BME280;40838;50.676;7.838;2023-04-01T03:40:12;96379.66;;;1.88;100.00
54936;BME280;40838;50.676;7.838;2023-04-01T03:42:39;96375.78;;;1.60;100.00
54936;BME280;40838;50.676;7.838;2023-04-01T03:45:06;96380.25;;;1.75;100.00
54936;BME280;40838;50.676;7.838;2023-04-01T03:47:35;96378.88;;;1.93;100.00
54936;BME280;40838;50.676;7.838;2023-04-01T03:50:02;96385.97;;;1.87;100.00
54936;BME280;40838;50.676;7.838;2023-04-01T03:52:30;96386.03;;;1.57;100.00
54936;BME280;40838;50.676;7.838;2023-04-01T03:54:57;96386.31;;;1.50;100.00
54936;BME280;40838;50.676;7.838;2023-04-01T03:57:24;96381.31;;;1.54;100.00
54936;BME280;40838;50.676;7.838;2023-04-01T03:59:56;96379.44;;;1.75;100.00
54936;BME280;40838;50.676;7.838;2023-04-01T04:02:22;96378.94;;;1.57;100.00
54936;BME280;40838;50.676;7.838;2023-04-01T04:04:51;96375.53;;;1.57;100.00
54936;BME280;40838;50.676;7.838;2023-04-01T04:07:18;96375.56;;;1.46;100.00
54936;BME280;40838;50.676;7.838;2023-04-01T04:09:59;96369.25;;;1.47;100.00
54936;BME280;40838;50.676;7.838;2023-04-01T04:12:26;96384.97;;;1.73;100.00
54936;BME280;40838;50.676;7.838;2023-04-01T04:14:53;96375.53;;;1.52;100.00
54936;BME280;40838;50.676;7.838;2023-04-01T04:17:20;96367.66;;;1.57;100.00
54936;BME280;40838;50.676;7.838;2023-04-01T04:19:47;96377.66;;;1.55;100.00
54936;BME280;40838;50.676;7.838;2023-04-01T04:22:16;96378.69;;;1.59;100.00
54936;BME280;40838;50.676;7.838;2023-04-01T04:24:43;96377.75;;;2.09;100.00
54936;BME280;40838;50.676;7.838;2023-04-01T04:27:12;96377.50;;;2.01;100.00
54936;BME280;40838;50.676;7.838;2023-04-01T04:29:57;96372.03;;;1.97;100.00
54936;BME280;40838;50.676;7.838;2023-04-01T04:32:24;96370.47;;;1.91;100.00
54936;BME280;40838;50.676;7.838;2023-04-01T04:34:51;96374.75;;;1.66;100.00
54936;BME280;40838;50.676;7.838;2023-04-01T04:37:20;96376.03;;;1.79;100.00
54936;BME280;40838;50.676;7.838;2023-04-01T04:39:47;96378.59;;;1.89;100.00
54936;BME280;40838;50.676;7.838;2023-04-01T04:42:14;96381.28;;;1.69;100.00
54936;BME280;40838;50.676;7.838;2023-04-01T04:44:41;96376.50;;;1.91;100.00
54936;BME280;40838;50.676;7.838;2023-04-01T04:47:08;96368.38;;;1.93;100.00
54936;BME280;40838;50.676;7.838;2023-04-01T04:49:35;96378.94;;;1.67;100.00
54936;BME280;40838;50.676;7.838;2023-04-01T04:52:06;96390.50;;;1.66;100.00
54936;BME280;40838;50.676;7.838;2023-04-01T04:54:35;96388.38;;;1.73;100.00
54936;BME280;40838;50.676;7.838;2023-04-01T04:57:03;96384.41;;;1.81;100.00
54936;BME280;40838;50.676;7.838;2023-04-01T04:59:35;96379.41;;;1.85;100.00
54936;BME280;40838;50.676;7.838;2023-04-01T05:02:14;96384.38;;;1.91;100.00
54936;BME280;40838;50.676;7.838;2023-04-01T05:04:41;96384.91;;;1.93;100.00
54936;BME280;40838;50.676;7.838;2023-04-01T05:07:10;96391.22;;;1.82;100.00
54936;BME280;40838;50.676;7.838;2023-04-01T05:09:39;96387.00;;;1.86;100.00
54936;BME280;40838;50.676;7.838;2023-04-01T05:12:06;96392.06;;;1.67;100.00
54936;BME280;40838;50.676;7.838;2023-04-01T05:14:52;96385.97;;;1.87;100.00
54936;BME280;40838;50.676;7.838;2023-04-01T05:17:19;96394.41;;;1.79;100.00
54936;BME280;40838;50.676;7.838;2023-04-01T05:19:46;96395.47;;;1.78;100.00
54936;BME280;40838;50.676;7.838;2023-04-01T05:22:13;96388.63;;;1.82;100.00
54936;BME280;40838;50.676;7.838;2023-04-01T05:24:42;96390.69;;;1.90;100.00
54936;BME280;40838;50.676;7.838;2023-04-01T05:27:11;96389.09;;;1.89;100.00
54936;BME280;40838;50.676;7.838;2023-04-01T05:29:40;96388.56;;;1.98;100.00
54936;BME280;40838;50.676;7.838;2023-04-01T05:32:13;96390.41;;;1.92;100.00
54936;BME280;40838;50.676;7.838;2023-04-01T05:34:40;96387.28;;;1.90;100.00
54936;BME280;40838;50.676;7.838;2023-04-01T05:37:07;96394.09;;;1.86;100.00
54936;BME280;40838;50.676;7.838;2023-04-01T05:39:36;96390.69;;;1.85;100.00
54936;BME280;40838;50.676;7.838;2023-04-01T05:42:05;96397.56;;;1.76;100.00
54936;BME280;40838;50.676;7.838;2023-04-01T05:44:33;96394.19;;;2.35;100.00
54936;BME280;40838;50.676;7.838;2023-04-01T05:47:25;96406.38;;;2.11;100.00
54936;BME280;40838;50.676;7.838;2023-04-01T05:49:52;96383.69;;;2.30;100.00
54936;BME280;40838;50.676;7.838;2023-04-01T05:52:20;96393.69;;;2.38;100.00
54936;BME280;40838;50.676;7.838;2023-04-01T05:54:48;96395.25;;;2.34;100.00
54936;BME280;40838;50.676;7.838;2023-04-01T05:57:16;96402.09;;;2.30;100.00
54936;BME280;40838;50.676;7.838;2023-04-01T05:59:43;96392.13;;;2.27;100.00
54936;BME280;40838;50.676;7.838;2023-04-01T06:02:11;96392.56;;;2.50;100.00
54936;BME280;40838;50.676;7.838;2023-04-01T06:04:40;96390.56;;;2.21;100.00
54936;BME280;40838;50.676;7.838;2023-04-01T06:07:11;96389.81;;;2.15;100.00
54936;BME280;40838;50.676;7.838;2023-04-01T06:09:38;96399.94;;;2.48;100.00
54936;BME280;40838;50.676;7.838;2023-04-01T06:12:29;96401.59;;;2.28;100.00
54936;BME280;40838;50.676;7.838;2023-04-01T06:15:10;96413.47;;;2.10;100.00
54936;BME280;40838;50.676;7.838;2023-04-01T06:17:51;96409.69;;;2.37;100.00
54936;BME280;40838;50.676;7.838;2023-04-01T06:20:27;96406.03;;;2.33;100.00
54936;BME280;40838;50.676;7.838;2023-04-01T06:23:22;96407.34;;;2.40;100.00
54936;BME280;40838;50.676;7.838;2023-04-01T06:26:05;96400.38;;;2.65;100.00
54936;BME280;40838;50.676;7.838;2023-04-01T06:29:05;96402.56;;;2.48;100.00
54936;BME280;40838;50.676;7.838;2023-04-01T06:31:46;96382.97;;;8.01;100.00
54936;BME280;40838;50.676;7.838;2023-04-01T06:34:38;96385.31;;;8.12;100.00
54936;BME280;40838;50.676;7.838;2023-04-01T06:37:20;96390.16;;;8.10;100.00
54936;BME280;40838;50.676;7.838;2023-04-01T06:40:03;96382.34;;;9.14;100.00
54936;BME280;40838;50.676;7.838;2023-04-01T06:42:50;96397.47;;;7.42;100.00
54936;BME280;40838;50.676;7.838;2023-04-01T06:45:44;96390.31;;;7.42;100.00
54936;BME280;40838;50.676;7.838;2023-04-01T06:48:41;96391.19;;;7.91;100.00
54936;BME280;40838;50.676;7.838;2023-04-01T06:51:37;96396.59;;;7.46;100.00
54936;BME280;40838;50.676;7.838;2023-04-01T06:54:29;96392.59;;;7.97;100.00
54936;BME280;40838;50.676;7.838;2023-04-01T06:57:22;96402.94;;;7.23;100.00
54936;BME280;40838;50.676;7.838;2023-04-01T06:59:51;96392.31;;;6.28;100.00
54936;BME280;40838;50.676;7.838;2023-04-01T07:02:27;96406.72;;;6.85;100.00
54936;BME280;40838;50.676;7.838;2023-04-01T07:04:55;96397.97;;;8.15;100.00
54936;BME280;40838;50.676;7.838;2023-04-01T07:07:30;96405.91;;;7.44;100.00
54936;BME280;40838;50.676;7.838;2023-04-01T07:10:05;96401.09;;;7.23;100.00
54936;BME280;40838;50.676;7.838;2023-04-01T07:13:00;96399.66;;;7.71;100.00
54936;BME280;40838;50.676;7.838;2023-04-01T07:16:05;96409.63;;;6.84;100.00
54936;BME280;40838;50.676;7.838;2023-04-01T07:18:42;96406.28;;;6.92;100.00
54936;BME280;40838;50.676;7.838;2023-04-01T07:21:22;96406.78;;;7.61;100.00
54936;BME280;40838;50.676;7.838;2023-04-01T07:23:52;96421.28;;;6.97;100.00
54936;BME280;40838;50.676;7.838;2023-04-01T07:26:32;96405.81;;;7.12;100.00
54936;BME280;40838;50.676;7.838;2023-04-01T07:29:08;96408.66;;;7.61;100.00
54936;BME280;40838;50.676;7.838;2023-04-01T07:31:54;96417.91;;;6.82;100.00
54936;BME280;40838;50.676;7.838;2023-04-01T07:34:30;96412.97;;;7.79;100.00
54936;BME280;40838;50.676;7.838;2023-04-01T07:37:05;96416.44;;;7.57;100.00
54936;BME280;40838;50.676;7.838;2023-04-01T07:39:41;96404.56;;;8.26;100.00
54936;BME280;40838;50.676;7.838;2023-04-01T07:42:29;96419.03;;;7.49;100.00
54936;BME280;40838;50.676;7.838;2023-04-01T07:45:05;96410.88;;;7.99;100.00
54936;BME280;40838;50.676;7.838;2023-04-01T07:47:45;96417.56;;;7.65;100.00
54936;BME280;40838;50.676;7.838;2023-04-01T07:50:26;96415.41;;;7.67;100.00
54936;BME280;40838;50.676;7.838;2023-04-01T07:53:03;96425.69;;;7.24;100.00
54936;BME280;40838;50.676;7.838;2023-04-01T07:55:36;96428.38;;;7.10;100.00
54936;BME280;40838;50.676;7.838;2023-04-01T07:58:09;96424.47;;;7.07;100.00
54936;BME280;40838;50.676;7.838;2023-04-01T08:00:49;96423.00;;;6.79;100.00
54936;BME280;40838;50.676;7.838;2023-04-01T08:03:36;96423.47;;;6.81;100.00
54936;BME280;40838;50.676;7.838;2023-04-01T08:06:14;96414.84;;;8.19;100.00
54936;BME280;40838;50.676;7.838;2023-04-01T08:08:56;96428.34;;;7.69;100.00
54936;BME280;40838;50.676;7.838;2023-04-01T08:11:44;96423.53;;;7.48;100.00
54936;BME280;40838;50.676;7.838;2023-04-01T08:14:49;96432.22;;;8.34;100.00
54936;BME280;40838;50.676;7.838;2023-04-01T08:17:59;96450.34;;;7.69;100.00
54936;BME280;40838;50.676;7.838;2023-04-01T08:20:33;96446.53;;;7.84;100.00
54936;BME280;40838;50.676;7.838;2023-04-01T08:23:06;96442.84;;;8.02;100.00
54936;BME280;40838;50.676;7.838;2023-04-01T08:25:42;96445.16;;;8.92;100.00
54936;BME280;40838;50.676;7.838;2023-04-01T08:28:17;96448.53;;;8.18;100.00
54936;BME280;40838;50.676;7.838;2023-04-01T08:30:50;96455.53;;;8.14;100.00
54936;BME280;40838;50.676;7.838;2023-04-01T08:33:22;96455.72;;;7.87;100.00
54936;BME280;40838;50.676;7.838;2023-04-01T08:35:59;96460.06;;;8.62;100.00
54936;BME280;40838;50.676;7.838;2023-04-01T08:38:32;96454.69;;;8.36;100.00
54936;BME280;40838;50.676;7.838;2023-04-01T08:41:13;96473.81;;;6.53;100.00
54936;BME280;40838;50.676;7.838;2023-04-01T08:47:17;96462.38;;;7.30;100.00
54936;BME280;40838;50.676;7.838;2023-04-01T08:50:23;96456.34;;;8.55;100.00
54936;BME280;40838;50.676;7.838;2023-04-01T08:53:08;96458.09;;;8.94;100.00
54936;BME280;40838;50.676;7.838;2023-04-01T08:55:54;96465.28;;;8.85;100.00
54936;BME280;40838;50.676;7.838;2023-04-01T09:01:45;96467.31;;;8.88;100.00
54936;BME280;40838;50.676;7.838;2023-04-01T09:04:44;96475.00;;;8.49;100.00
54936;BME280;40838;50.676;7.838;2023-04-01T09:07:26;96485.59;;;8.89;100.00
54936;BME280;40838;50.676;7.838;2023-04-01T09:13:35;96486.91;;;8.52;100.00
54936;BME280;40838;50.676;7.838;2023-04-01T09:16:18;96476.84;;;9.15;100.00
54936;BME280;40838;50.676;7.838;2023-04-01T09:18:59;96488.75;;;9.35;100.00
54936;BME280;40838;50.676;7.838;2023-04-01T09:21:48;96487.69;;;8.52;100.00
54936;BME280;40838;50.676;7.838;2023-04-01T09:24:41;96486.97;;;8.69;100.00
54936;BME280;40838;50.676;7.838;2023-04-01T09:27:26;96494.59;;;8.22;100.00
54936;BME280;40838;50.676;7.838;2023-04-01T09:30:25;96503.47;;;7.28;100.00
54936;BME280;40838;50.676;7.838;2023-04-01T09:33:21;96498.50;;;8.65;100.00
54936;BME280;40838;50.676;7.838;2023-04-01T09:36:04;96502.44;;;8.36;100.00
54936;BME280;40838;50.676;7.838;2023-04-01T09:38:43;96498.44;;;9.13;100.00
54936;BME280;40838;50.676;7.838;2023-04-01T09:41:22;96510.75;;;8.92;100.00
54936;BME280;40838;50.676;7.838;2023-04-01T09:44:11;96499.22;;;9.23;100.00
54936;BME280;40838;50.676;7.838;2023-04-01T09:47:35;96509.22;;;7.89;100.00
54936;BME280;40838;50.676;7.838;2023-04-01T09:50:23;96503.56;;;8.84;100.00
54936;BME280;40838;50.676;7.838;2023-04-01T09:53:14;96507.06;;;9.45;100.00
54936;BME280;40838;50.676;7.838;2023-04-01T09:56:17;96509.91;;;8.03;100.00
54936;BME280;40838;50.676;7.838;2023-04-01T10:02:50;96517.50;;;8.98;100.00
54936;BME280;40838;50.676;7.838;2023-04-01T10:05:43;96522.34;;;9.13;100.00
54936;BME280;40838;50.676;7.838;2023-04-01T10:12:02;96523.59;;;9.16;100.00
54936;BME280;40838;50.676;7.838;2023-04-01T10:17:53;96533.84;;;8.43;100.00
54936;BME280;40838;50.676;7.838;2023-04-01T10:20:59;96545.19;;;7.08;100.00
54936;BME280;40838;50.676;7.838;2023-04-01T10:24:10;96539.56;;;7.60;100.00
54936;BME280;40838;50.676;7.838;2023-04-01T10:27:21;96547.25;;;7.25;100.00
54936;BME280;40838;50.676;7.838;2023-04-01T10:33:46;96553.41;;;7.34;100.00
54936;BME280;40838;50.676;7.838;2023-04-01T10:36:37;96566.38;;;7.58;100.00
54936;BME280;40838;50.676;7.838;2023-04-01T10:39:33;96561.28;;;7.84;100.00
54936;BME280;40838;50.676;7.838;2023-04-01T10:42:52;96557.41;;;8.13;100.00
54936;BME280;40838;50.676;7.838;2023-04-01T10:55:49;96556.31;;;7.92;100.00
54936;BME280;40838;50.676;7.838;2023-04-01T10:59:04;96549.75;;;8.83;100.00
54936;BME280;40838;50.676;7.838;2023-04-01T11:06:07;96560.94;;;8.31;100.00
54936;BME280;40838;50.676;7.838;2023-04-01T11:09:24;96562.03;;;8.61;100.00
54936;BME280;40838;50.676;7.838;2023-04-01T11:12:43;96568.31;;;8.74;100.00
54936;BME280;40838;50.676;7.838;2023-04-01T11:15:31;96571.09;;;8.38;100.00
54936;BME280;40838;50.676;7.838;2023-04-01T11:27:48;96569.44;;;8.82;100.00
54936;BME280;40838;50.676;7.838;2023-04-01T11:30:29;96567.69;;;9.26;100.00
54936;BME280;40838;50.676;7.838;2023-04-01T11:33:05;96573.03;;;8.77;100.00
54936;BME280;40838;50.676;7.838;2023-04-01T11:35:58;96578.31;;;7.70;100.00
54936;BME280;40838;50.676;7.838;2023-04-01T11:38:49;96584.09;;;7.94;100.00
54936;BME280;40838;50.676;7.838;2023-04-01T11:41:52;96587.06;;;8.15;100.00
54936;BME280;40838;50.676;7.838;2023-04-01T11:44:51;96590.34;;;7.90;100.00
54936;BME280;40838;50.676;7.838;2023-04-01T11:47:45;96590.91;;;8.54;100.00
54936;BME280;40838;50.676;7.838;2023-04-01T11:50:22;96599.56;;;8.46;100.00
54936;BME280;40838;50.676;7.838;2023-04-01T11:53:07;96601.28;;;8.19;100.00
54936;BME280;40838;50.676;7.838;2023-04-01T11:55:46;96600.94;;;8.43;100.00
54936;BME280;40838;50.676;7.838;2023-04-01T11:58:48;96598.97;;;8.80;100.00
54936;BME280;40838;50.676;7.838;2023-04-01T12:01:25;96608.94;;;8.21;100.00
54936;BME280;40838;50.676;7.838;2023-04-01T12:07:06;96606.75;;;8.45;100.00
54936;BME280;40838;50.676;7.838;2023-04-01T12:09:46;96610.78;;;8.43;100.00
54936;BME280;40838;50.676;7.838;2023-04-01T12:12:22;96603.53;;;8.97;100.00
54936;BME280;40838;50.676;7.838;2023-04-01T12:15:00;96606.81;;;8.54;100.00
54936;BME280;40838;50.676;7.838;2023-04-01T12:17:37;96613.88;;;8.99;100.00
54936;BME280;40838;50.676;7.838;2023-04-01T12:20:30;96621.72;;;8.72;100.00
54936;BME280;40838;50.676;7.838;2023-04-01T12:23:09;96618.44;;;8.44;100.00
54936;BME280;40838;50.676;7.838;2023-04-01T12:26:04;96625.19;;;8.82;100.00
54936;BME280;40838;50.676;7.838;2023-04-01T12:28:43;96619.38;;;9.11;100.00
54936;BME280;40838;50.676;7.838;2023-04-01T12:31:22;96633.03;;;8.56;100.00
54936;BME280;40838;50.676;7.838;2023-04-01T12:34:19;96631.88;;;8.70;100.00
54936;BME280;40838;50.676;7.838;2023-04-01T12:37:02;96634.25;;;7.82;100.00
54936;BME280;40838;50.676;7.838;2023-04-01T12:39:44;96639.25;;;8.51;100.00
54936;BME280;40838;50.676;7.838;2023-04-01T12:42:27;96643.34;;;8.35;100.00
54936;BME280;40838;50.676;7.838;2023-04-01T12:45:04;96648.53;;;7.95;100.00
54936;BME280;40838;50.676;7.838;2023-04-01T12:48:00;96647.09;;;8.11;100.00
54936;BME280;40838;50.676;7.838;2023-04-01T12:50:57;96652.94;;;7.99;100.00
54936;BME280;40838;50.676;7.838;2023-04-01T12:53:42;96658.31;;;8.53;100.00
54936;BME280;40838;50.676;7.838;2023-04-01T12:56:17;96650.44;;;9.02;100.00
54936;BME280;40838;50.676;7.838;2023-04-01T12:59:03;96647.31;;;9.65;100.00
54936;BME280;40838;50.676;7.838;2023-04-01T13:01:54;96640.31;;;9.87;100.00
54936;BME280;40838;50.676;7.838;2023-04-01T13:04:44;96662.03;;;9.72;100.00
54936;BME280;40838;50.676;7.838;2023-04-01T13:10:27;96672.66;;;8.74;100.00
54936;BME280;40838;50.676;7.838;2023-04-01T13:13:24;96669.19;;;8.74;100.00
54936;BME280;40838;50.676;7.838;2023-04-01T13:15:58;96660.09;;;9.55;100.00
54936;BME280;40838;50.676;7.838;2023-04-01T13:18:38;96672.03;;;9.17;100.00
54936;BME280;40838;50.676;7.838;2023-04-01T13:21:11;96666.19;;;9.55;100.00
54936;BME280;40838;50.676;7.838;2023-04-01T13:23:54;96682.88;;;9.30;100.00
54936;BME280;40838;50.676;7.838;2023-04-01T13:26:28;96682.53;;;9.23;100.00
54936;BME280;40838;50.676;7.838;2023-04-01T13:29:04;96679.59;;;8.93;100.00
54936;BME280;40838;50.676;7.838;2023-04-01T13:31:40;96685.66;;;8.17;100.00
54936;BME280;40838;50.676;7.838;2023-04-01T13:34:26;96681.81;;;8.23;100.00
54936;BME280;40838;50.676;7.838;2023-04-01T13:37:05;96691.75;;;7.95;100.00
54936;BME280;40838;50.676;7.838;2023-04-01T13:40:02;96692.44;;;8.23;100.00
54936;BME280;40838;50.676;7.838;2023-04-01T13:42:34;96695.56;;;8.25;100.00
54936;BME280;40838;50.676;7.838;2023-04-01T13:45:12;96700.03;;;8.84;100.00
54936;BME280;40838;50.676;7.838;2023-04-01T13:48:09;96704.97;;;8.77;100.00
54936;BME280;40838;50.676;7.838;2023-04-01T13:53:55;96700.56;;;9.43;100.00
54936;BME280;40838;50.676;7.838;2023-04-01T13:56:34;96703.38;;;8.67;100.00
54936;BME280;40838;50.676;7.838;2023-04-01T13:59:16;96708.50;;;8.94;100.00
54936;BME280;40838;50.676;7.838;2023-04-01T14:01:54;96711.97;;;9.43;100.00
54936;BME280;40838;50.676;7.838;2023-04-01T14:04:38;96714.38;;;9.14;100.00
54936;BME280;40838;50.676;7.838;2023-04-01T14:07:18;96715.97;;;8.84;100.00
54936;BME280;40838;50.676;7.838;2023-04-01T14:10:07;96718.84;;;8.51;100.00
54936;BME280;40838;50.676;7.838;2023-04-01T14:12:40;96722.75;;;7.95;100.00
54936;BME280;40838;50.676;7.838;2023-04-01T14:15:23;96722.00;;;8.53;100.00
54936;BME280;40838;50.676;7.838;2023-04-01T14:18:13;96725.31;;;8.81;100.00
54936;BME280;40838;50.676;7.838;2023-04-01T14:20:50;96728.13;;;8.40;100.00
54936;BME280;40838;50.676;7.838;2023-04-01T14:24:03;96725.84;;;8.24;100.00
54936;BME280;40838;50.676;7.838;2023-04-01T14:29:23;96734.75;;;8.28;100.00
54936;BME280;40838;50.676;7.838;2023-04-01T14:32:06;96739.19;;;8.56;100.00
54936;BME280;40838;50.676;7.838;2023-04-01T14:34:47;96736.38;;;8.52;100.00
54936;BME280;40838;50.676;7.838;2023-04-01T14:37:55;96737.31;;;8.34;100.00
54936;BME280;40838;50.676;7.838;2023-04-01T14:40:42;96740.06;;;8.96;100.00
54936;BME280;40838;50.676;7.838;2023-04-01T14:49:34;96738.28;;;8.83;100.00
54936;BME280;40838;50.676;7.838;2023-04-01T14:52:11;96740.81;;;8.43;100.00
54936;BME280;40838;50.676;7.838;2023-04-01T14:54:41;96738.31;;;9.23;100.00
54936;BME280;40838;50.676;7.838;2023-04-01T14:57:14;96743.44;;;9.50;100.00
54936;BME280;40838;50.676;7.838;2023-04-01T14:59:48;96743.34;;;8.93;100.00
54936;BME280;40838;50.676;7.838;2023-04-01T15:02:26;96749.13;;;8.50;100.00
54936;BME280;40838;50.676;7.838;2023-04-01T15:05:06;96751.25;;;8.62;100.00